Time;durP1;ratioP1;P1;durP2;ratioP2;P2;SDS_P1;SDS_P2;PMS_P1;PMS_P2;Temp;Humidity;BMP_temperature;BMP_pressure;BME280_temperature;BME280_humidity;BME280_pressure;Samples;Min_cycle;Max_cycle;Signal;HPM_P1;HPM_P2
2022/01/05 00:01:04;0.00;0.00;0.62;0.00;0.00;0.62;1.47;1.00;;;23.00;30.40;;;;;;2249505;61;20384;-63
2022/01/05 00:03:49;0.00;0.00;0.62;0.00;0.00;0.62;1.87;1.10;;;23.00;30.40;;;;;;2249815;61;20569;-63
2022/01/05 00:06:35;0.00;0.00;0.62;0.00;0.00;0.62;2.90;1.03;;;23.00;30.40;;;;;;2249750;61;20365;-61
2022/01/05 00:09:19;0.00;0.00;0.62;0.00;0.00;0.62;3.00;1.37;;;23.00;30.30;;;;;;2248899;61;20364;-62
2022/01/05 00:12:06;0.00;0.00;0.62;0.00;0.00;0.62;1.67;1.00;;;23.00;30.20;;;;;;2249309;61;20361;-63
2022/01/05 00:14:51;0.00;0.00;0.62;0.00;0.00;0.62;1.93;1.20;;;23.00;30.10;;;;;;2249457;61;20364;-63
2022/01/05 00:17:35;0.00;0.00;0.62;0.00;0.00;0.62;2.87;1.03;;;22.90;30.00;;;;;;2249020;61;20609;-63
2022/01/05 00:20:20;0.00;0.00;0.62;0.00;0.00;0.62;3.20;1.30;;;22.90;29.80;;;;;;2249649;61;20388;-63
2022/01/05 00:23:06;0.00;0.00;0.62;0.00;0.00;0.62;3.20;1.47;;;22.90;29.80;;;;;;2249112;61;20353;-63
2022/01/05 00:25:51;0.00;0.00;0.62;0.00;0.00;0.62;1.83;1.07;;;22.90;29.60;;;;;;2249337;61;20366;-63
2022/01/05 00:28:35;0.00;0.00;0.62;0.00;0.00;0.62;2.90;1.40;;;22.90;29.50;;;;;;2249488;61;20578;-63
2022/01/05 00:31:20;0.00;0.00;0.62;0.00;0.00;0.62;2.37;1.30;;;22.80;29.30;;;;;;2249037;61;20404;-63
2022/01/05 00:34:04;0.00;0.00;0.62;0.00;0.00;0.62;1.97;1.27;;;22.80;29.20;;;;;;2249563;61;20581;-63
2022/01/05 00:36:49;0.00;0.00;0.62;0.00;0.00;0.62;2.00;1.30;;;22.70;29.10;;;;;;2249601;61;20364;-63
2022/01/05 00:39:35;0.00;0.00;0.62;0.00;0.00;0.62;2.70;1.30;;;22.70;29.10;;;;;;2248860;61;20377;-63
2022/01/05 00:42:19;0.00;0.00;0.62;0.00;0.00;0.62;3.37;1.40;;;22.70;28.80;;;;;;2249623;61;20368;-63
2022/01/05 00:45:05;0.00;0.00;0.62;0.00;0.00;0.62;2.97;1.37;;;22.60;28.40;;;;;;2249477;61;20376;-63
2022/01/05 00:47:49;0.00;0.00;0.62;0.00;0.00;0.62;3.13;1.37;;;22.50;28.30;;;;;;2249537;61;20364;-63
2022/01/05 00:50:34;0.00;0.00;0.62;0.00;0.00;0.62;2.90;1.47;;;22.50;28.30;;;;;;2250329;61;20439;-64
2022/01/05 00:53:18;0.00;0.00;0.62;0.00;0.00;0.62;2.47;1.40;;;22.50;28.30;;;;;;2249665;61;20440;-64
2022/01/05 00:56:04;0.00;0.00;0.62;0.00;0.00;0.62;3.00;1.47;;;22.40;28.30;;;;;;2249965;61;20415;-63
2022/01/05 00:58:49;0.00;0.00;0.62;0.00;0.00;0.62;4.17;1.37;;;22.40;28.30;;;;;;2250321;61;20392;-64
2022/01/05 01:01:36;0.00;0.00;0.62;0.00;0.00;0.62;1.80;1.27;;;22.30;28.20;;;;;;2249811;61;20444;-63
2022/01/05 01:04:21;0.00;0.00;0.62;0.00;0.00;0.62;2.23;1.30;;;22.30;28.30;;;;;;2250361;61;20732;-63
2022/01/05 01:07:05;0.00;0.00;0.62;0.00;0.00;0.62;4.17;1.30;;;22.30;28.40;;;;;;2250205;61;20356;-63
2022/01/05 01:09:50;0.00;0.00;0.62;0.00;0.00;0.62;2.23;1.20;;;22.30;28.50;;;;;;2249379;61;20388;-64
2022/01/05 01:12:36;0.00;0.00;0.62;0.00;0.00;0.62;3.67;1.43;;;22.30;28.50;;;;;;2250357;61;20440;-64
2022/01/05 01:15:21;0.00;0.00;0.62;0.00;0.00;0.62;3.20;1.33;;;22.20;28.40;;;;;;2249616;61;20368;-64
2022/01/05 01:18:05;0.00;0.00;0.62;0.00;0.00;0.62;3.50;1.50;;;22.20;28.40;;;;;;2249754;61;20392;-63
2022/01/05 01:20:50;0.00;0.00;0.62;0.00;0.00;0.62;1.70;1.10;;;22.20;28.40;;;;;;2250383;61;20705;-62
2022/01/05 01:23:37;0.00;0.00;0.62;0.00;0.00;0.62;2.53;1.20;;;22.20;28.40;;;;;;2249504;61;20393;-63
2022/01/05 01:26:23;0.00;0.00;0.62;0.00;0.00;0.62;2.30;1.20;;;22.20;28.40;;;;;;2250319;61;20400;-63
2022/01/05 01:29:09;0.00;0.00;0.62;0.00;0.00;0.62;2.90;1.63;;;22.20;28.40;;;;;;2249872;61;20361;-63
2022/01/05 01:31:53;0.00;0.00;0.62;0.00;0.00;0.62;3.57;1.83;;;22.10;28.30;;;;;;2249392;61;20813;-63
2022/01/05 01:34:38;0.00;0.00;0.62;0.00;0.00;0.62;4.33;1.10;;;22.10;28.30;;;;;;2250449;61;20400;-63
2022/01/05 01:37:22;0.00;0.00;0.62;0.00;0.00;0.62;3.67;1.20;;;22.10;28.80;;;;;;2249644;61;20852;-63
2022/01/05 01:40:08;0.00;0.00;0.62;0.00;0.00;0.62;2.90;1.47;;;22.10;28.20;;;;;;2249791;61;20380;-62
2022/01/05 01:42:53;0.00;0.00;0.62;0.00;0.00;0.62;2.97;1.43;;;22.00;28.10;;;;;;2250360;61;20443;-63
2022/01/05 01:45:39;0.00;0.00;0.62;0.00;0.00;0.62;3.10;1.60;;;22.00;28.00;;;;;;2249279;61;20575;-63
2022/01/05 01:48:23;0.00;0.00;0.62;0.00;0.00;0.62;3.00;1.40;;;22.00;28.00;;;;;;2250008;61;20581;-63
2022/01/05 01:51:08;0.00;0.00;0.62;0.00;0.00;0.62;2.37;1.30;;;22.00;28.00;;;;;;2249864;61;20389;-64
2022/01/05 01:53:53;0.00;0.00;0.62;0.00;0.00;0.62;2.40;1.43;;;21.90;27.90;;;;;;2249311;61;20364;-64
2022/01/05 01:56:38;0.00;0.00;0.62;0.00;0.00;0.62;3.17;1.37;;;22.00;28.00;;;;;;2250257;61;20445;-63
2022/01/05 01:59:23;0.00;0.00;0.62;0.00;0.00;0.62;4.30;1.70;;;22.00;28.00;;;;;;2249579;61;20407;-63
2022/01/05 02:02:10;0.00;0.00;0.62;0.00;0.00;0.62;3.07;1.30;;;21.90;27.90;;;;;;2249882;61;20740;-63
2022/01/05 02:04:56;0.00;0.00;0.62;0.00;0.00;0.62;2.27;1.30;;;21.90;27.90;;;;;;2250260;61;20364;-63
2022/01/05 02:07:41;0.00;0.00;0.62;0.00;0.00;0.62;4.97;1.77;;;21.90;27.90;;;;;;2249289;61;20365;-65
2022/01/05 02:10:25;0.00;0.00;0.62;0.00;0.00;0.62;3.73;1.63;;;21.90;27.90;;;;;;2249634;61;20389;-64
2022/01/05 02:13:10;0.00;0.00;0.62;0.00;0.00;0.62;3.17;1.50;;;21.90;27.90;;;;;;2250051;61;20400;-63
2022/01/05 02:15:54;0.00;0.00;0.62;0.00;0.00;0.62;4.40;1.53;;;21.80;27.90;;;;;;2249186;61;20730;-63
2022/01/05 02:19:01;0.00;0.00;0.62;0.00;0.00;0.62;5.73;1.47;;;21.80;27.90;;;;;;2250050;61;20412;-63
2022/01/05 02:21:46;0.00;0.00;0.62;0.00;0.00;0.62;2.87;1.10;;;21.80;27.90;;;;;;2249771;61;20651;-63
2022/01/05 02:24:31;0.00;0.00;0.62;0.00;0.00;0.62;3.07;1.50;;;21.70;27.80;;;;;;2249963;61;20833;-63
2022/01/05 02:27:17;0.00;0.00;0.62;0.00;0.00;0.62;4.07;1.67;;;21.70;27.80;;;;;;2250439;61;20467;-63
2022/01/05 02:30:01;0.00;0.00;0.62;0.00;0.00;0.62;2.50;1.00;;;21.70;27.80;;;;;;2249170;61;20395;-63
2022/01/05 02:32:46;0.00;0.00;0.62;0.00;0.00;0.62;4.23;1.70;;;21.70;27.80;;;;;;2249938;61;20403;-63
2022/01/05 02:35:31;0.00;0.00;0.62;0.00;0.00;0.62;3.47;1.17;;;21.70;27.80;;;;;;2249785;61;20383;-64
2022/01/05 02:38:19;0.00;0.00;0.62;0.00;0.00;0.62;3.80;1.70;;;21.70;27.80;;;;;;2249197;61;20392;-63
2022/01/05 02:41:07;0.00;0.00;0.62;0.00;0.00;0.62;5.20;2.20;;;21.60;27.70;;;;;;2250168;61;20405;-64
2022/01/05 02:43:52;0.00;0.00;0.62;0.00;0.00;0.62;6.90;2.03;;;21.60;27.50;;;;;;2249402;61;20400;-64
2022/01/05 02:46:37;0.00;0.00;0.62;0.00;0.00;0.62;3.33;1.70;;;21.60;27.30;;;;;;2249756;61;20624;-64
2022/01/05 02:49:21;0.00;0.00;0.62;0.00;0.00;0.62;3.07;1.67;;;21.50;27.30;;;;;;2249945;61;20620;-63
2022/01/05 02:52:07;0.00;0.00;0.62;0.00;0.00;0.62;4.37;1.40;;;21.50;27.30;;;;;;2249494;61;20361;-62
2022/01/05 02:54:53;0.00;0.00;0.62;0.00;0.00;0.62;4.87;1.33;;;21.40;27.20;;;;;;2249828;61;20369;-63
2022/01/05 02:57:38;0.00;0.00;0.62;0.00;0.00;0.62;2.27;1.23;;;21.40;27.10;;;;;;2249533;61;20388;-62
2022/01/05 03:00:23;0.00;0.00;0.62;0.00;0.00;0.62;5.50;1.37;;;21.40;27.10;;;;;;2249158;61;20436;-61
2022/01/05 03:03:07;0.00;0.00;0.62;0.00;0.00;0.62;4.57;1.80;;;21.40;27.10;;;;;;2250120;61;20353;-63
2022/01/05 03:05:52;0.00;0.00;0.62;0.00;0.00;0.62;3.40;1.63;;;21.30;27.10;;;;;;2249763;61;20650;-61
2022/01/05 03:08:37;0.00;0.00;0.62;0.00;0.00;0.62;4.50;1.40;;;21.30;27.10;;;;;;2249316;61;20353;-64
2022/01/05 03:11:22;0.00;0.00;0.62;0.00;0.00;0.62;4.10;1.77;;;21.30;27.00;;;;;;2249899;61;20388;-62
2022/01/05 03:14:07;0.00;0.00;0.62;0.00;0.00;0.62;3.33;1.40;;;21.20;27.00;;;;;;2249155;61;20360;-63
2022/01/05 03:16:51;0.00;0.00;0.62;0.00;0.00;0.62;2.73;1.37;;;21.20;27.00;;;;;;2249761;61;20457;-64
2022/01/05 03:19:36;0.00;0.00;0.62;0.00;0.00;0.62;3.10;1.87;;;21.20;27.10;;;;;;2249314;61;20420;-61
2022/01/05 03:22:20;0.00;0.00;0.62;0.00;0.00;0.62;3.10;1.50;;;21.20;27.10;;;;;;2249174;61;20364;-63
2022/01/05 03:25:07;0.00;0.00;0.62;0.00;0.00;0.62;3.40;1.50;;;21.20;27.00;;;;;;2249904;61;20365;-63
2022/01/05 03:27:54;0.00;0.00;0.62;0.00;0.00;0.62;3.70;1.30;;;21.10;27.00;;;;;;2249780;61;20691;-63
2022/01/05 03:30:40;0.00;0.00;0.62;0.00;0.00;0.62;5.07;1.43;;;21.10;26.90;;;;;;2249243;61;20408;-63
2022/01/05 03:33:24;0.00;0.00;0.62;0.00;0.00;0.62;2.97;1.30;;;21.10;26.90;;;;;;2249522;61;20408;-62
2022/01/05 03:36:10;0.00;0.00;0.62;0.00;0.00;0.62;4.30;1.30;;;21.00;26.80;;;;;;2248996;61;20587;-62
2022/01/05 03:38:55;0.00;0.00;0.62;0.00;0.00;0.62;4.23;1.50;;;21.00;26.80;;;;;;2249461;61;20427;-63
2022/01/05 03:41:39;0.00;0.00;0.62;0.00;0.00;0.62;4.23;1.53;;;21.00;26.60;;;;;;2249855;61;20365;-61
2022/01/05 03:44:26;0.00;0.00;0.62;0.00;0.00;0.62;3.93;1.63;;;20.90;26.50;;;;;;2249298;61;20399;-63
2022/01/05 03:47:11;0.00;0.00;0.62;0.00;0.00;0.62;6.53;2.00;;;20.90;26.50;;;;;;2249824;61;20435;-62
2022/01/05 03:49:55;0.00;0.00;0.62;0.00;0.00;0.62;2.93;1.40;;;20.80;26.40;;;;;;2249532;61;20787;-63
2022/01/05 03:52:39;0.00;0.00;0.62;0.00;0.00;0.62;3.60;2.00;;;20.80;26.50;;;;;;2248838;61;20749;-63
2022/01/05 03:55:24;0.00;0.00;0.62;0.00;0.00;0.62;4.53;1.87;;;20.80;26.50;;;;;;2249871;61;20412;-63
2022/01/05 03:58:09;0.00;0.00;0.62;0.00;0.00;0.62;4.47;1.83;;;20.70;26.40;;;;;;2249095;61;20761;-63
2022/01/05 04:00:55;0.00;0.00;0.62;0.00;0.00;0.62;3.87;1.20;;;20.70;26.40;;;;;;2249575;61;20423;-63
2022/01/05 04:03:40;0.00;0.00;0.62;0.00;0.00;0.62;3.60;1.60;;;20.60;26.20;;;;;;2249502;61;20376;-63
2022/01/05 04:06:25;0.00;0.00;0.62;0.00;0.00;0.62;3.37;1.70;;;20.60;26.20;;;;;;2248745;61;20635;-63
2022/01/05 04:09:11;0.00;0.00;0.62;0.00;0.00;0.62;4.20;1.90;;;20.60;26.20;;;;;;2249675;61;20377;-62
2022/01/05 04:11:55;0.00;0.00;0.62;0.00;0.00;0.62;3.63;1.87;;;20.50;26.20;;;;;;2249535;61;20416;-63
2022/01/05 04:14:39;0.00;0.00;0.62;0.00;0.00;0.62;4.00;1.53;;;20.50;26.10;;;;;;2249019;61;20388;-62
2022/01/05 04:17:25;0.00;0.00;0.62;0.00;0.00;0.62;5.87;2.23;;;20.40;26.10;;;;;;2249651;61;20365;-63
2022/01/05 04:20:12;0.00;0.00;0.62;0.00;0.00;0.62;6.27;2.23;;;20.40;26.10;;;;;;2249535;61;20602;-63
2022/01/05 04:22:56;0.00;0.00;0.62;0.00;0.00;0.62;3.53;1.63;;;20.30;26.00;;;;;;2249386;61;20400;-62
2022/01/05 04:25:41;0.00;0.00;0.62;0.00;0.00;0.62;3.70;1.53;;;20.30;26.00;;;;;;2249797;61;20632;-63
2022/01/05 04:28:25;0.00;0.00;0.62;0.00;0.00;0.62;2.70;1.60;;;20.20;26.00;;;;;;2249024;61;20425;-63
2022/01/05 04:31:10;0.00;0.00;0.62;0.00;0.00;0.62;6.00;1.80;;;20.20;26.10;;;;;;2249410;61;20620;-63
2022/01/05 04:33:56;0.00;0.00;0.62;0.00;0.00;0.62;3.10;1.47;;;20.20;26.00;;;;;;2249515;61;20380;-63
2022/01/05 04:36:40;0.00;0.00;0.62;0.00;0.00;0.62;5.30;1.60;;;20.10;26.00;;;;;;2248682;61;20369;-63
2022/01/05 04:39:25;0.00;0.00;0.62;0.00;0.00;0.62;5.43;1.60;;;20.10;26.00;;;;;;2249610;61;20440;-63
2022/01/05 04:42:09;0.00;0.00;0.62;0.00;0.00;0.62;6.20;1.77;;;20.10;26.00;;;;;;2249481;61;20364;-63
2022/01/05 04:44:54;0.00;0.00;0.62;0.00;0.00;0.62;3.90;1.60;;;20.00;25.90;;;;;;2249097;61;20629;-63
2022/01/05 04:47:38;0.00;0.00;0.62;0.00;0.00;0.62;2.80;1.53;;;20.00;26.00;;;;;;2249863;61;20403;-63
2022/01/05 04:50:24;0.00;0.00;0.62;0.00;0.00;0.62;6.97;1.50;;;20.00;26.00;;;;;;2248882;61;20427;-63
2022/01/05 04:53:11;0.00;0.00;0.62;0.00;0.00;0.62;5.30;1.90;;;20.00;26.00;;;;;;2249360;61;20373;-62
2022/01/05 04:55:56;0.00;0.00;0.62;0.00;0.00;0.62;3.83;1.40;;;19.90;25.80;;;;;;2249667;61;20380;-63
2022/01/05 04:58:41;0.00;0.00;0.62;0.00;0.00;0.62;3.17;1.50;;;19.90;25.90;;;;;;2248793;61;20387;-62
2022/01/05 05:01:25;0.00;0.00;0.62;0.00;0.00;0.62;2.43;1.40;;;19.90;25.80;;;;;;2249757;61;20839;-63
2022/01/05 05:04:10;0.00;0.00;0.62;0.00;0.00;0.62;3.80;1.50;;;19.80;25.80;;;;;;2249462;61;20440;-63
2022/01/05 05:06:56;0.00;0.00;0.62;0.00;0.00;0.62;4.80;1.90;;;19.80;25.80;;;;;;2248871;61;20411;-63
2022/01/05 05:09:40;0.00;0.00;0.62;0.00;0.00;0.62;2.90;1.33;;;19.70;25.70;;;;;;2249608;61;20395;-63
2022/01/05 05:12:25;0.00;0.00;0.62;0.00;0.00;0.62;4.00;1.57;;;19.70;25.80;;;;;;2248903;61;20736;-63
2022/01/05 05:15:09;0.00;0.00;0.62;0.00;0.00;0.62;5.03;1.70;;;19.70;25.80;;;;;;2249483;61;20364;-62
2022/01/05 05:17:54;0.00;0.00;0.62;0.00;0.00;0.62;3.13;1.43;;;19.60;25.60;;;;;;2249137;61;20380;-63
2022/01/05 05:20:40;0.00;0.00;0.62;0.00;0.00;0.62;3.30;1.50;;;19.60;25.40;;;;;;2248877;61;20397;-63
2022/01/05 05:23:27;0.00;0.00;0.62;0.00;0.00;0.62;4.03;1.57;;;19.60;25.50;;;;;;2249657;61;20365;-63
2022/01/05 05:26:11;0.00;0.00;0.62;0.00;0.00;0.62;2.10;1.10;;;19.50;25.50;;;;;;2248796;61;20369;-63
2022/01/05 05:28:56;0.00;0.00;0.62;0.00;0.00;0.62;3.60;1.60;;;19.50;25.50;;;;;;2711211;46;20388;-63
2022/01/05 05:31:41;0.00;0.00;0.62;0.00;0.00;0.62;5.23;2.47;;;19.50;25.50;;;;;;2245094;48;20927;-62
2022/01/05 05:34:26;0.00;0.00;0.62;0.00;0.00;0.62;7.33;1.97;;;19.40;25.20;;;;;;2241691;62;20362;-63
2022/01/05 05:37:10;0.00;0.00;0.62;0.00;0.00;0.62;4.50;2.00;;;19.40;24.90;;;;;;2241396;62;20410;-63
2022/01/05 05:39:57;0.00;0.00;0.62;0.00;0.00;0.62;6.27;1.50;;;19.30;24.60;;;;;;2241665;61;20378;-63
2022/01/05 05:42:41;0.00;0.00;0.62;0.00;0.00;0.62;5.23;1.80;;;19.30;24.70;;;;;;2241895;62;20370;-63
2022/01/05 05:45:26;0.00;0.00;0.62;0.00;0.00;0.62;3.60;1.50;;;19.20;24.70;;;;;;2242367;62;20579;-63
2022/01/05 05:48:11;0.00;0.00;0.62;0.00;0.00;0.62;3.30;1.57;;;19.20;24.90;;;;;;2241512;62;20401;-62
2022/01/05 05:50:55;0.00;0.00;0.62;0.00;0.00;0.62;3.60;1.80;;;19.10;24.90;;;;;;2241812;61;20386;-62
2022/01/05 05:53:40;0.00;0.00;0.62;0.00;0.00;0.62;5.77;2.33;;;19.10;24.80;;;;;;2242290;62;20358;-63
2022/01/05 05:56:26;0.00;0.00;0.62;0.00;0.00;0.62;3.60;1.70;;;19.00;24.70;;;;;;2241951;62;20595;-63
2022/01/05 05:59:11;0.00;0.00;0.62;0.00;0.00;0.62;4.67;1.53;;;19.00;24.80;;;;;;2241765;61;20470;-62
2022/01/05 06:01:55;0.00;0.00;0.62;0.00;0.00;0.62;5.30;1.73;;;18.90;24.70;;;;;;2578924;46;20401;-63
2022/01/05 06:04:40;0.00;0.00;0.62;0.00;0.00;0.62;4.63;1.60;;;18.90;24.80;;;;;;2233991;62;20432;-64
2022/01/05 06:07:24;0.00;0.00;0.62;0.00;0.00;0.62;4.30;1.60;;;18.90;24.80;;;;;;2234168;62;20403;-63
2022/01/05 06:10:10;0.00;0.00;0.62;0.00;0.00;0.62;4.17;1.33;;;18.90;24.80;;;;;;2233184;62;20380;-62
2022/01/05 06:12:56;0.00;0.00;0.62;0.00;0.00;0.62;2.43;1.50;;;18.90;25.00;;;;;;2236738;62;20477;-63
2022/01/05 06:15:41;0.00;0.00;0.62;0.00;0.00;0.62;2.53;0.90;;;18.80;25.20;;;;;;2238358;62;20424;-64
2022/01/05 06:18:25;0.00;0.00;0.62;0.00;0.00;0.62;2.97;1.33;;;18.80;25.30;;;;;;2237652;62;20388;-63
2022/01/05 06:21:10;0.00;0.00;0.62;0.00;0.00;0.62;2.80;1.13;;;18.90;25.50;;;;;;2237937;62;20383;-63
2022/01/05 06:23:55;0.00;0.00;0.62;0.00;0.00;0.62;2.40;1.20;;;18.90;25.60;;;;;;2237859;62;20387;-63
2022/01/05 06:26:39;0.00;0.00;0.62;0.00;0.00;0.62;3.37;1.20;;;19.00;25.70;;;;;;2237648;62;20446;-62
2022/01/05 06:29:25;0.00;0.00;0.62;0.00;0.00;0.62;3.20;1.60;;;19.00;25.90;;;;;;2237968;62;20363;-63
2022/01/05 06:32:10;0.00;0.00;0.62;0.00;0.00;0.62;3.67;1.10;;;19.00;25.90;;;;;;2237655;62;20383;-62
2022/01/05 06:34:55;0.00;0.00;0.62;0.00;0.00;0.62;2.10;1.20;;;19.10;26.00;;;;;;2237837;62;20367;-63
2022/01/05 06:37:40;0.00;0.00;0.62;0.00;0.00;0.62;3.63;1.40;;;19.10;26.00;;;;;;2238174;62;20498;-62
2022/01/05 06:40:25;0.00;0.00;0.62;0.00;0.00;0.62;2.00;1.20;;;19.20;26.10;;;;;;2237312;62;20406;-61
2022/01/05 06:43:09;0.00;0.00;0.62;0.00;0.00;0.62;2.70;1.20;;;19.20;26.00;;;;;;2237426;62;20408;-64
2022/01/05 06:45:56;0.00;0.00;0.62;0.00;0.00;0.62;1.73;0.80;;;19.20;26.00;;;;;;2237766;62;20585;-63
2022/01/05 06:48:40;0.00;0.00;0.62;0.00;0.00;0.62;2.37;1.13;;;19.30;26.10;;;;;;2237764;62;20387;-63
2022/01/05 06:51:24;0.00;0.00;0.62;0.00;0.00;0.62;2.47;1.20;;;19.30;26.20;;;;;;2237945;62;20431;-62
2022/01/05 06:54:09;0.00;0.00;0.62;0.00;0.00;0.62;2.53;1.27;;;19.30;26.10;;;;;;2237700;62;20403;-63
2022/01/05 06:56:53;0.00;0.00;0.62;0.00;0.00;0.62;2.53;1.20;;;19.40;26.20;;;;;;2237648;62;20476;-65
2022/01/05 06:59:39;0.00;0.00;0.62;0.00;0.00;0.62;3.40;1.20;;;19.40;26.20;;;;;;2238088;62;20420;-62
2022/01/05 07:02:24;0.00;0.00;0.62;0.00;0.00;0.62;1.90;1.10;;;19.40;26.20;;;;;;2237476;62;20376;-63
2022/01/05 07:05:10;0.00;0.00;0.62;0.00;0.00;0.62;2.50;1.30;;;19.40;26.20;;;;;;2237612;62;20371;-62
2022/01/05 07:07:54;0.00;0.00;0.62;0.00;0.00;0.62;3.00;1.30;;;19.50;26.30;;;;;;2237530;62;20587;-63
2022/01/05 07:10:38;0.00;0.00;0.62;0.00;0.00;0.62;1.90;1.07;;;19.50;26.30;;;;;;2237759;62;20792;-64
2022/01/05 07:13:23;0.00;0.00;0.62;0.00;0.00;0.62;1.83;0.93;;;19.50;26.30;;;;;;2238042;62;20421;-61
2022/01/05 07:16:07;0.00;0.00;0.62;0.00;0.00;0.62;2.83;1.17;;;19.60;26.30;;;;;;2237663;62;20363;-62
2022/01/05 07:18:53;0.00;0.00;0.62;0.00;0.00;0.62;3.93;1.30;;;19.60;26.30;;;;;;2237562;62;20422;-61
2022/01/05 07:21:38;0.00;0.00;0.62;0.00;0.00;0.62;2.53;1.40;;;19.60;26.30;;;;;;2238044;62;20371;-61
2022/01/05 07:24:23;0.00;0.00;0.62;0.00;0.00;0.62;1.77;1.00;;;19.60;26.30;;;;;;2237689;62;20757;-61
2022/01/05 07:27:08;0.00;0.00;0.62;0.00;0.00;0.62;2.67;1.03;;;19.60;26.30;;;;;;2237575;62;20737;-64
2022/01/05 07:29:53;0.00;0.00;0.62;0.00;0.00;0.62;2.00;1.00;;;19.70;26.40;;;;;;2237928;62;20383;-63
2022/01/05 07:32:37;0.00;0.00;0.62;0.00;0.00;0.62;2.47;1.43;;;19.70;26.40;;;;;;2237731;62;20383;-62
2022/01/05 07:35:23;0.00;0.00;0.62;0.00;0.00;0.62;1.67;0.90;;;19.70;26.40;;;;;;2237794;62;20629;-61
2022/01/05 07:38:08;0.00;0.00;0.62;0.00;0.00;0.62;2.60;1.20;;;19.70;26.40;;;;;;2237103;62;20403;-62
2022/01/05 07:40:53;0.00;0.00;0.62;0.00;0.00;0.62;1.80;1.10;;;19.80;26.50;;;;;;2237508;62;20391;-63
2022/01/05 07:43:37;0.00;0.00;0.62;0.00;0.00;0.62;3.40;1.10;;;19.80;26.50;;;;;;2237327;62;20364;-64
2022/01/05 07:46:22;0.00;0.00;0.62;0.00;0.00;0.62;2.17;1.20;;;19.80;26.50;;;;;;2237303;62;20416;-64
2022/01/05 07:49:07;0.00;0.00;0.62;0.00;0.00;0.62;2.07;1.13;;;19.80;26.50;;;;;;2237297;62;20441;-62
2022/01/05 07:51:53;0.00;0.00;0.62;0.00;0.00;0.62;1.87;0.90;;;19.80;26.50;;;;;;2238066;62;20399;-61
2022/01/05 07:54:38;0.00;0.00;0.62;0.00;0.00;0.62;2.73;0.90;;;19.80;26.50;;;;;;2237769;62;20371;-62
2022/01/05 07:57:22;0.00;0.00;0.62;0.00;0.00;0.62;2.43;1.33;;;19.90;26.50;;;;;;2237159;62;20423;-62
2022/01/05 08:00:09;0.00;0.00;0.62;0.00;0.00;0.62;1.90;0.87;;;19.90;26.50;;;;;;2237665;62;20383;-63
2022/01/05 08:02:54;0.00;0.00;0.62;0.00;0.00;0.62;1.60;0.90;;;19.90;26.50;;;;;;2237467;62;20440;-63
2022/01/05 08:05:39;0.00;0.00;0.62;0.00;0.00;0.62;1.57;0.80;;;19.90;26.50;;;;;;2237661;62;20602;-65
2022/01/05 08:08:24;0.00;0.00;0.62;0.00;0.00;0.62;2.00;1.07;;;20.00;26.60;;;;;;2236893;62;20618;-61
2022/01/05 08:11:09;0.00;0.00;0.62;0.00;0.00;0.62;2.90;1.07;;;19.90;26.60;;;;;;2237415;62;20387;-61
2022/01/05 08:13:54;0.00;0.00;0.62;0.00;0.00;0.62;2.80;0.97;;;20.00;26.60;;;;;;2238134;62;20423;-63
2022/01/05 08:16:39;0.00;0.00;0.62;0.00;0.00;0.62;2.13;0.90;;;20.00;26.60;;;;;;2237176;62;20398;-63
2022/01/05 08:19:24;0.00;0.00;0.62;0.00;0.00;0.62;1.93;0.87;;;20.00;26.60;;;;;;2237181;62;20452;-64
2022/01/05 08:22:08;0.00;0.00;0.62;0.00;0.00;0.62;1.73;0.97;;;20.00;26.60;;;;;;2237571;62;20597;-63
2022/01/05 08:24:54;0.00;0.00;0.62;0.00;0.00;0.62;1.87;1.10;;;20.00;26.60;;;;;;2237433;62;20481;-62
2022/01/05 08:27:46;0.00;0.00;0.62;0.00;0.00;0.62;2.17;0.90;;;20.10;26.70;;;;;;2237740;62;20378;-62
2022/01/05 08:30:34;0.00;0.00;0.62;0.00;0.00;0.62;3.43;1.00;;;20.00;26.60;;;;;;2237492;62;20391;-64
2022/01/05 08:33:18;0.00;0.00;0.62;0.00;0.00;0.62;1.77;1.00;;;20.10;26.70;;;;;;2237238;62;20379;-62
2022/01/05 08:36:04;0.00;0.00;0.62;0.00;0.00;0.62;1.63;0.87;;;20.10;26.70;;;;;;2237955;62;20645;-63
2022/01/05 08:38:49;0.00;0.00;0.62;0.00;0.00;0.62;1.63;0.73;;;20.10;26.70;;;;;;2237058;62;20459;-63
2022/01/05 08:41:36;0.00;0.00;0.62;0.00;0.00;0.62;2.27;1.17;;;20.10;26.70;;;;;;2237386;62;20379;-62
2022/01/05 08:44:21;0.00;0.00;0.62;0.00;0.00;0.62;2.73;1.20;;;20.20;26.70;;;;;;2237609;62;20469;-63
2022/01/05 08:47:07;0.00;0.00;0.62;0.00;0.00;0.62;2.80;0.93;;;20.10;26.70;;;;;;2237223;62;20356;-64
2022/01/05 08:49:52;0.00;0.00;0.62;0.00;0.00;0.62;2.77;1.27;;;20.10;26.70;;;;;;2237674;62;20750;-60
2022/01/05 08:52:37;0.00;0.00;0.62;0.00;0.00;0.62;1.97;1.13;;;20.20;26.70;;;;;;2237445;62;20435;-62
2022/01/05 08:55:25;0.00;0.00;0.62;0.00;0.00;0.62;2.30;1.10;;;20.20;26.70;;;;;;2237289;62;20415;-64
2022/01/05 08:58:12;0.00;0.00;0.62;0.00;0.00;0.62;2.10;0.83;;;20.20;26.70;;;;;;2237663;62;20394;-62
2022/01/05 09:00:57;0.00;0.00;0.62;0.00;0.00;0.62;1.87;0.90;;;20.20;26.70;;;;;;2237079;62;20394;-64
2022/01/05 09:03:41;0.00;0.00;0.62;0.00;0.00;0.62;3.10;0.90;;;20.20;26.70;;;;;;2237464;62;20402;-63
2022/01/05 09:06:26;0.00;0.00;0.62;0.00;0.00;0.62;2.07;1.00;;;20.20;26.70;;;;;;2237255;62;20661;-64
2022/01/05 09:09:10;0.00;0.00;0.62;0.00;0.00;0.62;2.97;1.23;;;20.30;26.80;;;;;;2237905;62;20395;-64
2022/01/05 09:11:55;0.00;0.00;0.62;0.00;0.00;0.62;1.37;0.80;;;20.30;26.80;;;;;;2238327;62;20415;-62
2022/01/05 09:14:41;0.00;0.00;0.62;0.00;0.00;0.62;2.93;1.20;;;20.30;26.80;;;;;;2237951;62;20465;-63
2022/01/05 09:17:27;0.00;0.00;0.62;0.00;0.00;0.62;1.90;0.90;;;20.30;26.80;;;;;;2238157;62;20391;-64
2022/01/05 09:20:12;0.00;0.00;0.62;0.00;0.00;0.62;2.27;1.60;;;20.30;26.80;;;;;;2238318;62;20383;-63
2022/01/05 09:22:56;0.00;0.00;0.62;0.00;0.00;0.62;1.50;1.00;;;20.30;26.70;;;;;;2237724;62;20371;-63
2022/01/05 09:25:42;0.00;0.00;0.62;0.00;0.00;0.62;1.70;0.97;;;20.30;26.70;;;;;;2238065;62;20489;-65
2022/01/05 09:28:26;0.00;0.00;0.62;0.00;0.00;0.62;1.70;0.87;;;20.30;26.70;;;;;;2237755;62;20371;-61
2022/01/05 09:31:13;0.00;0.00;0.62;0.00;0.00;0.62;1.97;0.90;;;20.30;26.70;;;;;;2238012;62;20719;-64
2022/01/05 09:33:58;0.00;0.00;0.62;0.00;0.00;0.62;1.90;0.93;;;20.30;26.70;;;;;;2238117;62;20735;-63
2022/01/05 09:36:48;0.00;0.00;0.62;0.00;0.00;0.62;2.50;1.07;;;20.30;26.70;;;;;;2237823;62;20444;-64
2022/01/05 09:42:37;0.00;0.00;0.62;0.00;0.00;0.62;1.80;1.10;;;20.30;26.70;;;;;;2237860;62;20383;-62
2022/01/05 09:45:23;0.00;0.00;0.62;0.00;0.00;0.62;1.90;1.10;;;20.30;26.70;;;;;;2237826;62;20415;-62
2022/01/05 09:48:44;0.00;0.00;0.62;0.00;0.00;0.62;2.27;1.27;;;20.40;26.70;;;;;;2237451;62;20728;-63
2022/01/05 09:51:31;0.00;0.00;0.62;0.00;0.00;0.62;2.03;1.00;;;20.30;26.70;;;;;;2237976;62;20387;-63
2022/01/05 09:54:16;0.00;0.00;0.62;0.00;0.00;0.62;2.73;1.37;;;20.40;26.70;;;;;;2237962;62;20651;-64
2022/01/05 09:57:02;0.00;0.00;0.62;0.00;0.00;0.62;1.70;0.97;;;20.40;26.70;;;;;;2238144;62;20371;-63
2022/01/05 09:59:48;0.00;0.00;0.62;0.00;0.00;0.62;2.87;1.30;;;20.40;26.70;;;;;;2237498;62;20533;-63
2022/01/05 10:02:32;0.00;0.00;0.62;0.00;0.00;0.62;1.70;1.10;;;20.40;26.70;;;;;;2237735;62;20375;-61
2022/01/05 10:05:18;0.00;0.00;0.62;0.00;0.00;0.62;1.80;1.00;;;20.40;26.60;;;;;;2238453;62;20739;-61
2022/01/05 10:08:05;0.00;0.00;0.62;0.00;0.00;0.62;1.80;1.10;;;20.40;26.60;;;;;;2237993;62;20382;-62
2022/01/05 10:10:50;0.00;0.00;0.62;0.00;0.00;0.62;1.33;1.00;;;20.40;26.60;;;;;;2237801;62;20398;-61
2022/01/05 10:13:35;0.00;0.00;0.62;0.00;0.00;0.62;4.00;1.30;;;20.40;26.60;;;;;;2238005;62;20768;-62
2022/01/05 10:16:20;0.00;0.00;0.62;0.00;0.00;0.62;2.00;1.20;;;20.40;26.60;;;;;;2237849;62;20359;-64
2022/01/05 10:19:06;0.00;0.00;0.62;0.00;0.00;0.62;2.83;1.37;;;20.40;26.60;;;;;;2237895;62;20451;-64
2022/01/05 10:21:52;0.00;0.00;0.62;0.00;0.00;0.62;2.30;1.20;;;20.40;26.60;;;;;;2237564;62;20360;-62
2022/01/05 10:24:42;0.00;0.00;0.62;0.00;0.00;0.62;1.83;1.00;;;20.40;26.60;;;;;;2237711;62;20368;-62
2022/01/05 10:27:28;0.00;0.00;0.62;0.00;0.00;0.62;1.60;1.20;;;20.40;26.60;;;;;;2238275;62;20756;-62
2022/01/05 10:30:14;0.00;0.00;0.62;0.00;0.00;0.62;1.60;0.93;;;20.40;26.50;;;;;;2237935;62;20382;-62
2022/01/05 10:32:59;0.00;0.00;0.62;0.00;0.00;0.62;1.80;1.10;;;20.40;26.50;;;;;;2237906;62;20373;-64
2022/01/05 10:35:55;0.00;0.00;0.62;0.00;0.00;0.62;2.43;1.33;;;20.40;26.60;;;;;;2237877;62;20409;-62
2022/01/05 10:38:53;0.00;0.00;0.62;0.00;0.00;0.62;2.43;1.10;;;20.40;26.50;;;;;;2237475;62;20391;-63
2022/01/05 10:41:38;0.00;0.00;0.62;0.00;0.00;0.62;1.30;0.73;;;20.50;26.60;;;;;;2238371;62;20383;-63
2022/01/05 10:44:24;0.00;0.00;0.62;0.00;0.00;0.62;2.57;1.00;;;20.40;26.50;;;;;;2237564;62;20380;-63
2022/01/05 10:47:09;0.00;0.00;0.62;0.00;0.00;0.62;1.60;0.97;;;20.40;26.50;;;;;;2237221;62;20610;-63
2022/01/05 10:49:54;0.00;0.00;0.62;0.00;0.00;0.62;2.30;1.07;;;20.40;26.50;;;;;;2237775;62;20384;-64
2022/01/05 10:52:41;0.00;0.00;0.62;0.00;0.00;0.62;1.60;1.00;;;20.40;26.50;;;;;;2237561;62;20372;-63
2022/01/05 10:55:30;0.00;0.00;0.62;0.00;0.00;0.62;2.87;1.20;;;20.40;26.50;;;;;;2238026;62;20471;-62